Time,TemperatureF,DewpointF,PressureIn,WindDirection,WindDirectionDegrees,WindSpeedMPH,WindSpeedGustMPH,Humidity,HourlyPrecipIn,Conditions,Clouds,dailyrainin,SoftwareType,DateUTC
2013-12-06 00:11:00,39.0,38.0,30.05,NNE,20,7.0,10.0,96,0.01,,,0.01,weatherlink.com 1.10,2013-12-06 06:11:00,
2013-12-06 00:26:00,38.8,38.0,30.03,NNW,332,2.0,9.0,96,0.01,,,0.01,weatherlink.com 1.10,2013-12-06 06:26:00,
2013-12-06 00:41:00,40.0,39.0,30.03,North,1,4.0,7.0,96,0.06,,,0.06,weatherlink.com 1.10,2013-12-06 06:41:00,
2013-12-06 00:56:00,40.0,39.0,30.04,NW,323,1.0,7.0,96,0.13,,,0.13,weatherlink.com 1.10,2013-12-06 06:56:00,
2013-12-06 01:11:00,40.1,39.0,30.03,North,358,4.0,10.0,96,0.16,,,0.17,weatherlink.com 1.10,2013-12-06 07:11:00,
2013-12-06 01:26:00,40.0,39.0,30.03,NNW,331,0.0,10.0,96,0.16,,,0.17,weatherlink.com 1.10,2013-12-06 07:26:00,
2013-12-06 01:41:00,40.1,39.0,30.01,WNW,297,5.0,8.0,96,0.13,,,0.19,weatherlink.com 1.10,2013-12-06 07:41:00,
2013-12-06 01:56:00,40.0,39.0,30.01,NNW,330,1.0,8.0,96,0.11,,,0.25,weatherlink.com 1.10,2013-12-06 07:56:00,
2013-12-06 02:11:00,38.9,38.0,30.01,NNE,22,0.0,7.0,97,0.36,,,0.53,weatherlink.com 1.10,2013-12-06 08:11:00,
2013-12-06 02:26:00,38.8,38.0,30.01,NNW,332,3.0,6.0,97,0.37,,,0.54,weatherlink.com 1.10,2013-12-06 08:26:00,
2013-12-06 02:41:00,38.7,38.0,30.02,West,264,2.0,7.0,97,0.58,,,0.77,weatherlink.com 1.10,2013-12-06 08:41:00,
2013-12-06 02:56:00,38.5,38.0,30.01,North,349,1.0,5.0,97,0.79,,,1.04,weatherlink.com 1.10,2013-12-06 08:56:00,
2013-12-06 03:11:00,39.6,39.0,30.01,NNE,25,0.0,4.0,97,1.32,,,1.85,weatherlink.com 1.10,2013-12-06 09:11:00,
2013-12-06 03:26:00,39.5,39.0,30.02,North,8,2.0,6.0,97,1.39,,,1.93,weatherlink.com 1.10,2013-12-06 09:26:00,
2013-12-06 03:41:00,39.7,39.0,30.01,NE,40,0.0,6.0,97,1.17,,,2.00,weatherlink.com 1.10,2013-12-06 09:41:00,
2013-12-06 03:56:00,39.7,39.0,30.02,NW,305,4.0,8.0,97,1.04,,,2.08,weatherlink.com 1.10,2013-12-06 09:56:00,
2013-12-06 04:11:00,39.5,39.0,30.03,NW,315,2.0,9.0,97,0.31,,,2.16,weatherlink.com 1.10,2013-12-06 10:11:00,
2013-12-06 04:27:00,39.6,39.0,30.03,NNW,328,4.0,7.0,97,0.30,,,2.23,weatherlink.com 1.10,2013-12-06 10:27:00,
2013-12-06 04:42:00,39.6,39.0,30.02,WNW,298,4.0,7.0,97,0.29,,,2.29,weatherlink.com 1.10,2013-12-06 10:42:00,
2013-12-06 04:57:00,39.5,39.0,30.02,North,5,2.0,10.0,97,0.25,,,2.33,weatherlink.com 1.10,2013-12-06 10:57:00,
2013-12-06 05:12:00,39.5,39.0,30.02,NW,313,7.0,8.0,97,0.20,,,2.36,weatherlink.com 1.10,2013-12-06 11:12:00,
2013-12-06 05:27:00,39.5,39.0,30.03,NNW,334,3.0,8.0,97,0.13,,,2.36,weatherlink.com 1.10,2013-12-06 11:27:00,
2013-12-06 05:42:00,39.5,39.0,30.03,North,359,2.0,7.0,97,0.07,,,2.36,weatherlink.com 1.10,2013-12-06 11:42:00,
2013-12-06 05:57:00,39.3,39.0,30.04,NNW,336,3.0,12.0,97,0.03,,,2.36,weatherlink.com 1.10,2013-12-06 11:57:00,
2013-12-06 06:12:00,39.5,39.0,30.06,NW,320,5.0,8.0,97,0.01,,,2.37,weatherlink.com 1.10,2013-12-06 12:12:00,
2013-12-06 06:27:00,39.0,38.0,30.02,ENE,68,4.0,10.0,96,0.01,,,2.37,weatherlink.com 1.10,2013-12-06 12:27:00,
2013-12-06 06:42:00,38.8,38.0,30.02,NNE,14,1.0,10.0,97,0.01,,,2.37,weatherlink.com 1.10,2013-12-06 12:42:00,
2013-12-06 06:57:00,38.8,38.0,30.03,NE,34,1.0,9.0,96,0.01,,,2.37,weatherlink.com 1.10,2013-12-06 12:57:00,
2013-12-06 07:12:00,38.7,38.0,30.06,North,5,0.0,9.0,97,0.00,,,2.37,weatherlink.com 1.10,2013-12-06 13:12:00,
2013-12-06 07:27:00,38.8,38.0,30.07,NNW,330,5.0,7.0,97,0.00,,,2.37,weatherlink.com 1.10,2013-12-06 13:27:00,
2013-12-06 07:42:00,38.7,38.0,30.06,North,353,2.0,8.0,97,0.00,,,2.37,weatherlink.com 1.10,2013-12-06 13:42:00,
2013-12-06 07:57:00,38.6,38.0,30.08,NE,44,2.0,10.0,96,0.00,,,2.37,weatherlink.com 1.10,2013-12-06 13:57:00,
2013-12-06 08:12:00,38.7,38.0,30.09,North,351,3.0,7.0,97,0.00,,,2.37,weatherlink.com 1.10,2013-12-06 14:12:00,
2013-12-06 08:27:00,38.4,38.0,30.08,North,350,6.0,9.0,97,0.01,,,2.38,weatherlink.com 1.10,2013-12-06 14:27:00,
2013-12-06 08:42:00,37.9,37.0,30.07,North,359,4.0,10.0,96,0.01,,,2.38,weatherlink.com 1.10,2013-12-06 14:42:00,
2013-12-06 08:57:00,38.0,37.0,30.06,NW,319,1.0,7.0,97,0.01,,,2.38,weatherlink.com 1.10,2013-12-06 14:57:00,
2013-12-06 09:12:00,37.9,37.0,30.07,East,83,2.0,8.0,96,0.01,,,2.38,weatherlink.com 1.10,2013-12-06 15:12:00,
2013-12-06 09:27:00,38.1,37.0,30.09,NNW,341,3.0,11.0,96,0.00,,,2.38,weatherlink.com 1.10,2013-12-06 15:27:00,
2013-12-06 09:42:00,38.3,37.0,30.12,North,355,7.0,9.0,96,0.00,,,2.38,weatherlink.com 1.10,2013-12-06 15:42:00,
2013-12-06 09:57:00,38.3,37.0,30.12,NW,323,1.0,8.0,96,0.00,,,2.38,weatherlink.com 1.10,2013-12-06 15:57:00,
2013-12-06 10:12:00,38.2,37.0,30.12,North,350,1.0,9.0,96,0.00,,,2.38,weatherlink.com 1.10,2013-12-06 16:12:00,
2013-12-06 10:27:00,38.0,37.0,30.13,NNW,340,11.0,15.0,96,0.00,,,2.38,weatherlink.com 1.10,2013-12-06 16:27:00,
2013-12-06 10:42:00,37.8,37.0,30.14,NW,325,5.0,11.0,96,0.00,,,2.38,weatherlink.com 1.10,2013-12-06 16:42:00,
2013-12-06 10:57:00,37.4,36.0,30.13,NNW,336,8.0,15.0,96,0.00,,,2.38,weatherlink.com 1.10,2013-12-06 16:57:00,
2013-12-06 11:12:00,37.4,36.0,30.14,North,10,0.0,8.0,96,0.02,,,2.40,weatherlink.com 1.10,2013-12-06 17:12:00,
2013-12-06 11:27:00,37.7,37.0,30.16,NNW,335,2.0,8.0,96,0.05,,,2.43,weatherlink.com 1.10,2013-12-06 17:27:00,
2013-12-06 11:42:00,37.5,37.0,30.16,North,2,1.0,8.0,96,0.07,,,2.45,weatherlink.com 1.10,2013-12-06 17:42:00,
2013-12-06 11:57:00,37.5,37.0,30.15,NNW,328,2.0,10.0,96,0.08,,,2.46,weatherlink.com 1.10,2013-12-06 17:57:00,
2013-12-06 12:12:00,37.3,36.0,30.15,NW,323,8.0,11.0,96,0.06,,,2.46,weatherlink.com 1.10,2013-12-06 18:12:00,
2013-12-06 12:27:00,37.5,37.0,30.14,NW,325,3.0,10.0,96,0.03,,,2.46,weatherlink.com 1.10,2013-12-06 18:27:00,
2013-12-06 12:42:00,37.4,36.0,30.16,NNW,329,8.0,13.0,96,0.01,,,2.46,weatherlink.com 1.10,2013-12-06 18:42:00,
2013-12-06 12:57:00,37.0,36.0,30.16,NNW,334,5.0,14.0,95,0.00,,,2.46,weatherlink.com 1.10,2013-12-06 18:57:00,
2013-12-06 13:12:00,36.8,36.0,30.15,North,3,6.0,9.0,95,0.01,,,2.47,weatherlink.com 1.10,2013-12-06 19:12:00,
2013-12-06 13:27:00,36.8,36.0,30.15,NNE,32,1.0,11.0,95,0.01,,,2.47,weatherlink.com 1.10,2013-12-06 19:27:00,
2013-12-06 13:42:00,37.2,36.0,30.15,NNW,330,4.0,11.0,95,0.01,,,2.47,weatherlink.com 1.10,2013-12-06 19:42:00,
2013-12-06 13:57:00,37.3,36.0,30.16,NNW,342,5.0,7.0,95,0.01,,,2.47,weatherlink.com 1.10,2013-12-06 19:57:00,
2013-12-06 14:12:00,37.2,36.0,30.17,NNW,329,2.0,11.0,95,0.00,,,2.47,weatherlink.com 1.10,2013-12-06 20:12:00,
2013-12-06 14:27:00,37.3,36.0,30.18,NW,325,6.0,8.0,95,0.00,,,2.47,weatherlink.com 1.10,2013-12-06 20:27:00,
2013-12-06 14:42:00,37.3,36.0,30.17,North,349,12.0,13.0,95,0.00,,,2.47,weatherlink.com 1.10,2013-12-06 20:42:00,
2013-12-06 14:57:00,37.2,36.0,30.18,North,350,2.0,7.0,95,0.00,,,2.47,weatherlink.com 1.10,2013-12-06 20:57:00,
2013-12-06 15:12:00,37.5,36.0,30.18,NNW,346,1.0,7.0,95,0.00,,,2.47,weatherlink.com 1.10,2013-12-06 21:12:00,
2013-12-06 15:27:00,37.1,36.0,30.19,NNE,14,0.0,12.0,94,0.00,,,2.47,weatherlink.com 1.10,2013-12-06 21:27:00,
2013-12-06 15:42:00,37.3,36.0,30.19,North,357,2.0,8.0,94,0.00,,,2.47,weatherlink.com 1.10,2013-12-06 21:42:00,
2013-12-06 15:57:00,36.9,35.0,30.20,NNW,333,3.0,10.0,94,0.00,,,2.47,weatherlink.com 1.10,2013-12-06 21:57:00,
2013-12-06 16:28:00,36.7,35.0,30.21,NW,323,4.0,8.0,94,0.01,,,2.48,weatherlink.com 1.10,2013-12-06 22:28:00,
2013-12-06 16:43:00,36.6,35.0,30.22,North,5,3.0,10.0,94,0.01,,,2.48,weatherlink.com 1.10,2013-12-06 22:43:00,
2013-12-06 16:58:00,36.5,35.0,30.23,NNW,329,7.0,12.0,94,0.01,,,2.48,weatherlink.com 1.10,2013-12-06 22:58:00,
2013-12-06 17:13:00,36.6,35.0,30.23,WNW,292,1.0,9.0,94,0.01,,,2.48,weatherlink.com 1.10,2013-12-06 23:13:00,
2013-12-06 17:28:00,36.7,35.0,30.24,NNW,335,2.0,10.0,94,0.00,,,2.48,weatherlink.com 1.10,2013-12-06 23:28:00,
2013-12-06 17:43:00,36.6,35.0,30.26,North,7,6.0,11.0,94,0.00,,,2.48,weatherlink.com 1.10,2013-12-06 23:43:00,
2013-12-06 17:58:00,36.4,35.0,30.25,NNW,334,6.0,13.0,94,0.00,,,2.48,weatherlink.com 1.10,2013-12-06 23:58:00,
2013-12-06 18:13:00,36.4,35.0,30.27,NW,313,7.0,13.0,94,0.00,,,2.48,weatherlink.com 1.10,2013-12-07 00:13:00,
2013-12-06 18:28:00,36.3,35.0,30.27,NW,321,3.0,11.0,93,0.00,,,2.48,weatherlink.com 1.10,2013-12-07 00:28:00,
2013-12-06 18:43:00,36.1,34.0,30.28,North,353,4.0,11.0,93,0.00,,,2.48,weatherlink.com 1.10,2013-12-07 00:43:00,
2013-12-06 18:58:00,36.0,34.0,30.28,NW,325,4.0,12.0,93,0.00,,,2.48,weatherlink.com 1.10,2013-12-07 00:58:00,
2013-12-06 19:13:00,35.7,34.0,30.30,NE,53,3.0,15.0,93,0.00,,,2.48,weatherlink.com 1.10,2013-12-07 01:13:00,
2013-12-06 19:28:00,35.4,34.0,30.30,North,356,14.0,14.0,93,0.00,,,2.48,weatherlink.com 1.10,2013-12-07 01:28:00,
2013-12-06 19:43:00,35.0,33.0,30.31,NNE,15,3.0,17.0,93,0.00,,,2.48,weatherlink.com 1.10,2013-12-07 01:43:00,
2013-12-06 19:58:00,35.0,33.0,30.31,North,350,2.0,12.0,93,0.00,,,2.48,weatherlink.com 1.10,2013-12-07 01:58:00,
2013-12-06 20:13:00,34.8,33.0,30.32,NW,313,9.0,12.0,93,0.00,,,2.48,weatherlink.com 1.10,2013-12-07 02:13:00,
2013-12-06 20:28:00,34.2,32.0,30.32,North,358,7.0,22.0,93,0.00,,,2.48,weatherlink.com 1.10,2013-12-07 02:28:00,
2013-12-06 20:43:00,34.0,32.0,30.33,NNE,29,3.0,9.0,93,0.00,,,2.48,weatherlink.com 1.10,2013-12-07 02:43:00,
2013-12-06 20:58:00,33.5,32.0,30.34,NNW,328,7.0,12.0,92,0.00,,,2.48,weatherlink.com 1.10,2013-12-07 02:58:00,
2013-12-06 21:13:00,33.2,31.0,30.34,North,1,3.0,15.0,92,0.00,,,2.48,weatherlink.com 1.10,2013-12-07 03:13:00,
2013-12-06 21:28:00,32.9,31.0,30.34,NW,326,3.0,13.0,93,0.00,,,2.48,weatherlink.com 1.10,2013-12-07 03:28:00,
2013-12-06 21:43:00,32.8,31.0,30.35,NNW,332,7.0,12.0,93,0.00,,,2.48,weatherlink.com 1.10,2013-12-07 03:43:00,
2013-12-06 21:58:00,32.7,31.0,30.35,NNW,330,2.0,12.0,93,0.00,,,2.48,weatherlink.com 1.10,2013-12-07 03:58:00,
2013-12-06 22:13:00,32.7,31.0,30.36,NNW,337,5.0,11.0,94,0.00,,,2.48,weatherlink.com 1.10,2013-12-07 04:13:00,
2013-12-06 22:28:00,32.5,31.0,30.36,NW,307,7.0,10.0,94,0.00,,,2.48,weatherlink.com 1.10,2013-12-07 04:28:00,
2013-12-06 22:44:00,32.2,31.0,30.37,NNW,338,1.0,12.0,94,0.00,,,2.48,weatherlink.com 1.10,2013-12-07 04:44:00,
2013-12-06 22:59:00,31.7,30.0,30.37,North,11,6.0,14.0,93,0.00,,,2.48,weatherlink.com 1.10,2013-12-07 04:59:00,
2013-12-06 23:14:00,31.9,30.0,30.38,NNW,344,5.0,14.0,94,0.00,,,2.48,weatherlink.com 1.10,2013-12-07 05:14:00,
2013-12-06 23:29:00,31.7,30.0,30.38,North,8,5.0,12.0,94,0.00,,,2.48,weatherlink.com 1.10,2013-12-07 05:29:00,
2013-12-06 23:44:00,31.6,30.0,30.38,NNW,330,5.0,13.0,94,0.00,,,2.48,weatherlink.com 1.10,2013-12-07 05:44:00,
2013-12-06 23:59:00,31.5,30.0,30.38,North,1,7.0,12.0,94,0.00,,,2.48,weatherlink.com 1.10,2013-12-07 05:59:00,